sensor_id;sensor_type;location;lat;lon;timestamp;P1;durP1;ratioP1;P2;durP2;ratioP2
7013;SDS011;3547;50.774;12.918;2023-05-29T00:01:25;3.87;;;2.70;;
7013;SDS011;3547;50.774;12.918;2023-05-29T00:03:51;5.87;;;2.23;;
7013;SDS011;3547;50.774;12.918;2023-05-29T00:06:21;3.90;;;2.43;;
7013;SDS011;3547;50.774;12.918;2023-05-29T00:08:47;3.27;;;2.40;;
7013;SDS011;3547;50.774;12.918;2023-05-29T00:11:13;5.37;;;2.80;;
7013;SDS011;3547;50.774;12.918;2023-05-29T00:13:40;3.77;;;2.27;;
7013;SDS011;3547;50.774;12.918;2023-05-29T00:16:06;2.60;;;2.40;;
7013;SDS011;3547;50.774;12.918;2023-05-29T00:18:35;5.60;;;3.17;;
7013;SDS011;3547;50.774;12.918;2023-05-29T00:21:01;4.80;;;3.20;;
7013;SDS011;3547;50.774;12.918;2023-05-29T00:23:27;4.33;;;3.03;;
7013;SDS011;3547;50.774;12.918;2023-05-29T00:25:54;2.70;;;2.20;;
7013;SDS011;3547;50.774;12.918;2023-05-29T00:28:20;5.93;;;2.20;;
7013;SDS011;3547;50.774;12.918;2023-05-29T00:30:46;4.80;;;3.07;;
7013;SDS011;3547;50.774;12.918;2023-05-29T00:33:12;4.23;;;2.60;;
7013;SDS011;3547;50.774;12.918;2023-05-29T00:35:38;4.07;;;2.90;;
7013;SDS011;3547;50.774;12.918;2023-05-29T00:38:05;6.43;;;3.20;;
7013;SDS011;3547;50.774;12.918;2023-05-29T00:40:31;3.37;;;2.60;;
7013;SDS011;3547;50.774;12.918;2023-05-29T00:42:57;3.73;;;2.20;;
7013;SDS011;3547;50.774;12.918;2023-05-29T00:45:23;4.60;;;2.50;;
7013;SDS011;3547;50.774;12.918;2023-05-29T00:47:49;2.90;;;2.50;;
7013;SDS011;3547;50.774;12.918;2023-05-29T00:50:15;4.70;;;2.33;;
7013;SDS011;3547;50.774;12.918;2023-05-29T00:52:43;5.10;;;2.93;;
7013;SDS011;3547;50.774;12.918;2023-05-29T00:55:11;4.83;;;2.70;;
7013;SDS011;3547;50.774;12.918;2023-05-29T00:57:37;2.97;;;1.80;;
7013;SDS011;3547;50.774;12.918;2023-05-29T01:00:05;4.20;;;2.20;;
7013;SDS011;3547;50.774;12.918;2023-05-29T01:02:42;3.57;;;2.57;;
7013;SDS011;3547;50.774;12.918;2023-05-29T01:05:10;2.83;;;2.40;;
7013;SDS011;3547;50.774;12.918;2023-05-29T01:07:37;3.67;;;2.60;;
7013;SDS011;3547;50.774;12.918;2023-05-29T01:10:07;3.83;;;2.40;;
7013;SDS011;3547;50.774;12.918;2023-05-29T01:12:47;3.07;;;2.30;;
7013;SDS011;3547;50.774;12.918;2023-05-29T01:27:09;4.00;;;3.13;;
7013;SDS011;3547;50.774;12.918;2023-05-29T01:29:37;3.97;;;2.30;;
7013;SDS011;3547;50.774;12.918;2023-05-29T01:32:08;3.63;;;2.23;;
7013;SDS011;3547;50.774;12.918;2023-05-29T01:34:35;3.73;;;2.70;;
7013;SDS011;3547;50.774;12.918;2023-05-29T01:37:02;4.27;;;2.70;;
7013;SDS011;3547;50.774;12.918;2023-05-29T01:39:28;3.67;;;2.43;;
7013;SDS011;3547;50.774;12.918;2023-05-29T01:41:55;3.63;;;2.50;;
7013;SDS011;3547;50.774;12.918;2023-05-29T01:44:24;3.93;;;2.60;;
7013;SDS011;3547;50.774;12.918;2023-05-29T01:46:51;5.40;;;2.80;;
7013;SDS011;3547;50.774;12.918;2023-05-29T01:49:18;2.90;;;2.60;;
7013;SDS011;3547;50.774;12.918;2023-05-29T01:51:45;4.80;;;2.60;;
7013;SDS011;3547;50.774;12.918;2023-05-29T01:54:11;3.90;;;3.07;;
7013;SDS011;3547;50.774;12.918;2023-05-29T01:56:38;13.60;;;3.17;;
7013;SDS011;3547;50.774;12.918;2023-05-29T01:59:04;4.03;;;3.23;;
7013;SDS011;3547;50.774;12.918;2023-05-29T02:01:31;6.30;;;3.23;;
7013;SDS011;3547;50.774;12.918;2023-05-29T02:03:58;3.40;;;2.93;;
7013;SDS011;3547;50.774;12.918;2023-05-29T02:06:24;5.47;;;3.23;;
7013;SDS011;3547;50.774;12.918;2023-05-29T02:08:50;4.20;;;3.13;;
7013;SDS011;3547;50.774;12.918;2023-05-29T02:11:17;4.67;;;3.37;;
7013;SDS011;3547;50.774;12.918;2023-05-29T02:13:43;8.10;;;3.67;;
7013;SDS011;3547;50.774;12.918;2023-05-29T02:16:09;4.40;;;3.33;;
7013;SDS011;3547;50.774;12.918;2023-05-29T02:18:35;7.53;;;3.97;;
7013;SDS011;3547;50.774;12.918;2023-05-29T02:21:02;4.37;;;3.37;;
7013;SDS011;3547;50.774;12.918;2023-05-29T02:23:28;3.73;;;3.23;;
7013;SDS011;3547;50.774;12.918;2023-05-29T02:25:54;3.83;;;3.17;;
7013;SDS011;3547;50.774;12.918;2023-05-29T02:28:20;5.77;;;2.97;;
7013;SDS011;3547;50.774;12.918;2023-05-29T02:30:47;4.90;;;2.93;;
7013;SDS011;3547;50.774;12.918;2023-05-29T02:33:13;4.67;;;3.30;;
7013;SDS011;3547;50.774;12.918;2023-05-29T02:35:39;3.83;;;3.10;;
7013;SDS011;3547;50.774;12.918;2023-05-29T02:38:05;4.87;;;2.80;;
7013;SDS011;3547;50.774;12.918;2023-05-29T02:40:31;4.43;;;2.87;;
7013;SDS011;3547;50.774;12.918;2023-05-29T02:42:58;3.97;;;3.17;;
7013;SDS011;3547;50.774;12.918;2023-05-29T02:45:24;4.63;;;2.80;;
7013;SDS011;3547;50.774;12.918;2023-05-29T02:47:50;3.67;;;3.20;;
7013;SDS011;3547;50.774;12.918;2023-05-29T02:50:16;2.70;;;2.47;;
7013;SDS011;3547;50.774;12.918;2023-05-29T02:52:42;3.97;;;3.13;;
7013;SDS011;3547;50.774;12.918;2023-05-29T02:55:08;4.50;;;2.80;;
7013;SDS011;3547;50.774;12.918;2023-05-29T02:57:35;4.07;;;3.00;;
7013;SDS011;3547;50.774;12.918;2023-05-29T03:00:01;3.93;;;2.60;;
7013;SDS011;3547;50.774;12.918;2023-05-29T03:02:30;5.07;;;3.63;;
7013;SDS011;3547;50.774;12.918;2023-05-29T03:04:57;3.13;;;2.70;;
7013;SDS011;3547;50.774;12.918;2023-05-29T03:07:23;3.93;;;2.87;;
7013;SDS011;3547;50.774;12.918;2023-05-29T03:09:50;5.63;;;2.97;;
7013;SDS011;3547;50.774;12.918;2023-05-29T03:12:16;3.47;;;2.73;;
7013;SDS011;3547;50.774;12.918;2023-05-29T03:14:42;3.17;;;2.67;;
7013;SDS011;3547;50.774;12.918;2023-05-29T03:17:08;4.60;;;2.83;;
7013;SDS011;3547;50.774;12.918;2023-05-29T03:19:34;4.67;;;3.00;;
7013;SDS011;3547;50.774;12.918;2023-05-29T03:22:00;3.30;;;2.90;;
7013;SDS011;3547;50.774;12.918;2023-05-29T03:24:27;6.33;;;3.07;;
7013;SDS011;3547;50.774;12.918;2023-05-29T03:26:53;4.33;;;3.20;;
7013;SDS011;3547;50.774;12.918;2023-05-29T03:29:19;3.20;;;2.90;;
7013;SDS011;3547;50.774;12.918;2023-05-29T03:31:45;3.63;;;3.10;;
7013;SDS011;3547;50.774;12.918;2023-05-29T03:34:11;4.07;;;2.73;;
7013;SDS011;3547;50.774;12.918;2023-05-29T03:36:38;3.00;;;2.70;;
7013;SDS011;3547;50.774;12.918;2023-05-29T03:39:05;5.60;;;2.53;;
7013;SDS011;3547;50.774;12.918;2023-05-29T03:41:31;3.67;;;2.67;;
7013;SDS011;3547;50.774;12.918;2023-05-29T03:43:57;4.97;;;2.97;;
7013;SDS011;3547;50.774;12.918;2023-05-29T03:46:24;3.20;;;2.70;;
7013;SDS011;3547;50.774;12.918;2023-05-29T03:48:50;3.90;;;3.07;;
7013;SDS011;3547;50.774;12.918;2023-05-29T03:51:16;5.57;;;3.17;;
7013;SDS011;3547;50.774;12.918;2023-05-29T03:53:42;3.73;;;3.20;;
7013;SDS011;3547;50.774;12.918;2023-05-29T03:56:12;3.37;;;2.90;;
7013;SDS011;3547;50.774;12.918;2023-05-29T03:58:38;3.00;;;2.37;;
7013;SDS011;3547;50.774;12.918;2023-05-29T04:01:05;2.90;;;2.60;;
7013;SDS011;3547;50.774;12.918;2023-05-29T04:03:31;3.13;;;2.80;;
7013;SDS011;3547;50.774;12.918;2023-05-29T04:05:57;3.87;;;2.50;;
7013;SDS011;3547;50.774;12.918;2023-05-29T04:08:24;4.20;;;2.73;;
7013;SDS011;3547;50.774;12.918;2023-05-29T04:10:51;3.07;;;2.70;;
7013;SDS011;3547;50.774;12.918;2023-05-29T04:13:19;2.67;;;2.47;;
7013;SDS011;3547;50.774;12.918;2023-05-29T04:15:46;3.37;;;2.70;;
7013;SDS011;3547;50.774;12.918;2023-05-29T04:18:13;6.00;;;3.53;;
7013;SDS011;3547;50.774;12.918;2023-05-29T04:20:39;3.73;;;3.37;;
7013;SDS011;3547;50.774;12.918;2023-05-29T04:23:05;3.43;;;3.13;;
7013;SDS011;3547;50.774;12.918;2023-05-29T04:25:31;3.63;;;2.30;;
7013;SDS011;3547;50.774;12.918;2023-05-29T04:27:57;3.80;;;2.83;;
7013;SDS011;3547;50.774;12.918;2023-05-29T04:30:27;5.20;;;3.50;;
7013;SDS011;3547;50.774;12.918;2023-05-29T04:32:54;2.97;;;2.67;;
7013;SDS011;3547;50.774;12.918;2023-05-29T04:35:20;3.73;;;2.67;;
7013;SDS011;3547;50.774;12.918;2023-05-29T04:37:47;3.10;;;2.80;;
7013;SDS011;3547;50.774;12.918;2023-05-29T04:40:13;5.10;;;3.07;;
7013;SDS011;3547;50.774;12.918;2023-05-29T04:42:42;4.50;;;3.07;;
7013;SDS011;3547;50.774;12.918;2023-05-29T04:45:11;4.93;;;2.83;;
7013;SDS011;3547;50.774;12.918;2023-05-29T04:47:37;4.03;;;2.57;;
7013;SDS011;3547;50.774;12.918;2023-05-29T04:50:10;4.30;;;2.80;;
7013;SDS011;3547;50.774;12.918;2023-05-29T04:52:37;3.93;;;2.40;;
7013;SDS011;3547;50.774;12.918;2023-05-29T04:55:04;6.47;;;3.60;;
7013;SDS011;3547;50.774;12.918;2023-05-29T04:57:31;7.00;;;2.73;;
7013;SDS011;3547;50.774;12.918;2023-05-29T04:59:57;3.20;;;2.80;;
7013;SDS011;3547;50.774;12.918;2023-05-29T05:02:23;4.00;;;3.10;;
7013;SDS011;3547;50.774;12.918;2023-05-29T05:04:49;3.43;;;2.77;;
7013;SDS011;3547;50.774;12.918;2023-05-29T05:07:16;4.00;;;3.30;;
7013;SDS011;3547;50.774;12.918;2023-05-29T05:09:42;4.97;;;2.87;;
7013;SDS011;3547;50.774;12.918;2023-05-29T05:12:08;3.27;;;2.60;;
7013;SDS011;3547;50.774;12.918;2023-05-29T05:14:34;4.40;;;2.93;;
7013;SDS011;3547;50.774;12.918;2023-05-29T05:17:00;4.17;;;3.10;;
7013;SDS011;3547;50.774;12.918;2023-05-29T05:19:27;3.80;;;2.80;;
7013;SDS011;3547;50.774;12.918;2023-05-29T05:21:53;3.93;;;2.53;;
7013;SDS011;3547;50.774;12.918;2023-05-29T05:24:19;4.30;;;3.00;;
7013;SDS011;3547;50.774;12.918;2023-05-29T05:26:45;4.30;;;2.70;;
7013;SDS011;3547;50.774;12.918;2023-05-29T05:29:11;3.33;;;2.83;;
7013;SDS011;3547;50.774;12.918;2023-05-29T05:31:39;3.43;;;2.80;;
7013;SDS011;3547;50.774;12.918;2023-05-29T05:34:05;2.80;;;2.53;;
7013;SDS011;3547;50.774;12.918;2023-05-29T05:36:31;3.47;;;2.90;;
7013;SDS011;3547;50.774;12.918;2023-05-29T05:38:58;5.73;;;3.07;;
7013;SDS011;3547;50.774;12.918;2023-05-29T05:41:24;3.37;;;2.77;;
7013;SDS011;3547;50.774;12.918;2023-05-29T05:43:50;2.83;;;2.33;;
7013;SDS011;3547;50.774;12.918;2023-05-29T05:46:17;4.37;;;2.90;;
7013;SDS011;3547;50.774;12.918;2023-05-29T05:48:43;3.53;;;2.50;;
7013;SDS011;3547;50.774;12.918;2023-05-29T05:51:09;4.40;;;3.07;;
7013;SDS011;3547;50.774;12.918;2023-05-29T05:53:36;3.20;;;2.47;;
7013;SDS011;3547;50.774;12.918;2023-05-29T05:56:03;8.43;;;2.53;;
7013;SDS011;3547;50.774;12.918;2023-05-29T05:58:29;2.70;;;2.40;;
7013;SDS011;3547;50.774;12.918;2023-05-29T06:00:55;4.13;;;2.60;;
7013;SDS011;3547;50.774;12.918;2023-05-29T06:03:22;4.83;;;3.17;;
7013;SDS011;3547;50.774;12.918;2023-05-29T06:05:49;5.40;;;3.30;;
7013;SDS011;3547;50.774;12.918;2023-05-29T06:08:16;5.03;;;2.97;;
7013;SDS011;3547;50.774;12.918;2023-05-29T06:10:42;4.43;;;3.10;;
7013;SDS011;3547;50.774;12.918;2023-05-29T06:13:09;3.57;;;2.37;;
7013;SDS011;3547;50.774;12.918;2023-05-29T06:15:35;5.20;;;2.77;;
7013;SDS011;3547;50.774;12.918;2023-05-29T06:18:01;3.27;;;2.47;;
7013;SDS011;3547;50.774;12.918;2023-05-29T06:20:28;5.13;;;1.97;;
7013;SDS011;3547;50.774;12.918;2023-05-29T06:22:55;3.03;;;2.57;;
7013;SDS011;3547;50.774;12.918;2023-05-29T06:25:23;4.27;;;2.40;;
7013;SDS011;3547;50.774;12.918;2023-05-29T06:28:00;3.30;;;2.00;;
7013;SDS011;3547;50.774;12.918;2023-05-29T06:30:28;4.07;;;2.23;;
7013;SDS011;3547;50.774;12.918;2023-05-29T06:32:54;2.57;;;2.07;;
7013;SDS011;3547;50.774;12.918;2023-05-29T06:35:28;3.53;;;2.50;;
7013;SDS011;3547;50.774;12.918;2023-05-29T06:37:57;4.07;;;2.77;;
7013;SDS011;3547;50.774;12.918;2023-05-29T06:40:24;2.93;;;2.00;;
7013;SDS011;3547;50.774;12.918;2023-05-29T06:42:50;5.43;;;1.80;;
7013;SDS011;3547;50.774;12.918;2023-05-29T06:45:17;3.30;;;1.97;;
7013;SDS011;3547;50.774;12.918;2023-05-29T06:47:43;2.17;;;1.87;;
7013;SDS011;3547;50.774;12.918;2023-05-29T06:50:10;2.40;;;2.07;;
7013;SDS011;3547;50.774;12.918;2023-05-29T06:52:36;3.17;;;2.20;;
7013;SDS011;3547;50.774;12.918;2023-05-29T06:55:02;2.77;;;1.80;;
7013;SDS011;3547;50.774;12.918;2023-05-29T06:57:29;4.23;;;2.33;;
7013;SDS011;3547;50.774;12.918;2023-05-29T06:59:55;3.73;;;2.23;;
7013;SDS011;3547;50.774;12.918;2023-05-29T07:02:21;3.93;;;2.50;;
7013;SDS011;3547;50.774;12.918;2023-05-29T07:04:47;3.00;;;1.90;;
7013;SDS011;3547;50.774;12.918;2023-05-29T07:07:13;3.13;;;1.87;;
7013;SDS011;3547;50.774;12.918;2023-05-29T07:09:40;3.63;;;1.97;;
7013;SDS011;3547;50.774;12.918;2023-05-29T07:12:06;3.77;;;2.30;;
7013;SDS011;3547;50.774;12.918;2023-05-29T07:14:32;3.03;;;1.83;;
7013;SDS011;3547;50.774;12.918;2023-05-29T07:16:59;2.75;;;2.03;;
7013;SDS011;3547;50.774;12.918;2023-05-29T07:19:25;2.13;;;1.88;;
7013;SDS011;3547;50.774;12.918;2023-05-29T07:21:52;1.92;;;1.77;;
7013;SDS011;3547;50.774;12.918;2023-05-29T07:24:18;2.25;;;1.90;;
7013;SDS011;3547;50.774;12.918;2023-05-29T07:26:45;2.80;;;1.60;;
7013;SDS011;3547;50.774;12.918;2023-05-29T07:29:11;2.05;;;1.85;;
7013;SDS011;3547;50.774;12.918;2023-05-29T07:31:39;2.15;;;1.83;;
7013;SDS011;3547;50.774;12.918;2023-05-29T07:34:06;2.45;;;1.65;;
7013;SDS011;3547;50.774;12.918;2023-05-29T07:36:32;2.05;;;1.60;;
7013;SDS011;3547;50.774;12.918;2023-05-29T07:38:58;2.90;;;1.75;;
7013;SDS011;3547;50.774;12.918;2023-05-29T07:41:25;3.22;;;1.75;;
7013;SDS011;3547;50.774;12.918;2023-05-29T07:43:52;2.20;;;1.83;;
7013;SDS011;3547;50.774;12.918;2023-05-29T07:46:19;2.35;;;1.83;;
7013;SDS011;3547;50.774;12.918;2023-05-29T07:48:45;2.30;;;1.70;;
7013;SDS011;3547;50.774;12.918;2023-05-29T07:51:12;1.70;;;1.50;;
7013;SDS011;3547;50.774;12.918;2023-05-29T07:53:38;2.28;;;1.80;;
7013;SDS011;3547;50.774;12.918;2023-05-29T07:56:04;3.63;;;2.13;;
7013;SDS011;3547;50.774;12.918;2023-05-29T07:58:31;1.77;;;1.58;;
7013;SDS011;3547;50.774;12.918;2023-05-29T08:00:58;2.75;;;1.77;;
7013;SDS011;3547;50.774;12.918;2023-05-29T08:03:25;2.28;;;1.80;;
7013;SDS011;3547;50.774;12.918;2023-05-29T08:05:51;2.75;;;1.67;;
7013;SDS011;3547;50.774;12.918;2023-05-29T08:08:17;2.67;;;2.10;;
7013;SDS011;3547;50.774;12.918;2023-05-29T08:10:45;2.05;;;1.52;;
7013;SDS011;3547;50.774;12.918;2023-05-29T08:13:11;1.70;;;1.58;;
7013;SDS011;3547;50.774;12.918;2023-05-29T08:15:37;2.53;;;2.00;;
7013;SDS011;3547;50.774;12.918;2023-05-29T08:18:03;3.20;;;1.92;;
7013;SDS011;3547;50.774;12.918;2023-05-29T08:20:31;2.80;;;1.83;;
7013;SDS011;3547;50.774;12.918;2023-05-29T08:23:00;4.07;;;1.80;;
7013;SDS011;3547;50.774;12.918;2023-05-29T08:25:26;1.67;;;1.58;;
7013;SDS011;3547;50.774;12.918;2023-05-29T08:27:52;1.90;;;1.50;;
7013;SDS011;3547;50.774;12.918;2023-05-29T08:30:19;1.85;;;1.50;;
7013;SDS011;3547;50.774;12.918;2023-05-29T08:32:45;1.90;;;1.65;;
7013;SDS011;3547;50.774;12.918;2023-05-29T08:35:12;2.65;;;1.38;;
7013;SDS011;3547;50.774;12.918;2023-05-29T08:37:38;1.50;;;1.40;;
7013;SDS011;3547;50.774;12.918;2023-05-29T08:40:04;2.55;;;1.48;;
7013;SDS011;3547;50.774;12.918;2023-05-29T08:42:40;1.48;;;1.25;;
7013;SDS011;3547;50.774;12.918;2023-05-29T08:45:19;2.00;;;1.40;;
7013;SDS011;3547;50.774;12.918;2023-05-29T08:47:52;1.80;;;1.52;;
7013;SDS011;3547;50.774;12.918;2023-05-29T08:50:20;2.70;;;1.23;;
7013;SDS011;3547;50.774;12.918;2023-05-29T08:52:47;3.75;;;0.90;;
7013;SDS011;3547;50.774;12.918;2023-05-29T08:55:20;1.27;;;1.17;;
7013;SDS011;3547;50.774;12.918;2023-05-29T08:57:46;2.47;;;1.30;;
7013;SDS011;3547;50.774;12.918;2023-05-29T09:00:13;3.67;;;1.38;;
7013;SDS011;3547;50.774;12.918;2023-05-29T09:02:43;2.08;;;1.35;;
7013;SDS011;3547;50.774;12.918;2023-05-29T09:05:10;2.20;;;1.42;;
7013;SDS011;3547;50.774;12.918;2023-05-29T09:07:38;2.08;;;1.55;;
7013;SDS011;3547;50.774;12.918;2023-05-29T09:10:05;1.67;;;1.38;;
7013;SDS011;3547;50.774;12.918;2023-05-29T09:12:35;1.05;;;1.02;;
7013;SDS011;3547;50.774;12.918;2023-05-29T09:15:02;1.48;;;1.30;;
7013;SDS011;3547;50.774;12.918;2023-05-29T09:17:33;2.70;;;1.50;;
7013;SDS011;3547;50.774;12.918;2023-05-29T09:19:59;1.52;;;1.40;;
7013;SDS011;3547;50.774;12.918;2023-05-29T09:22:26;2.05;;;1.42;;
7013;SDS011;3547;50.774;12.918;2023-05-29T09:24:52;2.75;;;1.90;;
7013;SDS011;3547;50.774;12.918;2023-05-29T09:27:18;2.72;;;1.70;;
7013;SDS011;3547;50.774;12.918;2023-05-29T09:29:45;2.70;;;1.50;;
7013;SDS011;3547;50.774;12.918;2023-05-29T09:32:13;2.65;;;1.65;;
7013;SDS011;3547;50.774;12.918;2023-05-29T09:34:42;2.15;;;1.40;;
7013;SDS011;3547;50.774;12.918;2023-05-29T09:37:09;2.67;;;1.75;;
7013;SDS011;3547;50.774;12.918;2023-05-29T09:39:50;1.70;;;1.48;;
7013;SDS011;3547;50.774;12.918;2023-05-29T09:42:19;3.75;;;1.50;;
7013;SDS011;3547;50.774;12.918;2023-05-29T09:44:48;2.45;;;1.50;;
7013;SDS011;3547;50.774;12.918;2023-05-29T09:47:18;1.70;;;1.55;;
7013;SDS011;3547;50.774;12.918;2023-05-29T09:49:45;1.95;;;1.55;;
7013;SDS011;3547;50.774;12.918;2023-05-29T09:52:12;3.20;;;1.45;;
7013;SDS011;3547;50.774;12.918;2023-05-29T09:54:46;1.98;;;1.63;;
7013;SDS011;3547;50.774;12.918;2023-05-29T09:57:12;1.90;;;1.70;;
7013;SDS011;3547;50.774;12.918;2023-05-29T09:59:45;2.80;;;1.75;;
7013;SDS011;3547;50.774;12.918;2023-05-29T10:02:16;2.20;;;1.75;;
7013;SDS011;3547;50.774;12.918;2023-05-29T10:04:43;3.10;;;1.70;;
7013;SDS011;3547;50.774;12.918;2023-05-29T10:07:15;1.67;;;1.55;;
7013;SDS011;3547;50.774;12.918;2023-05-29T10:09:52;2.13;;;1.73;;
7013;SDS011;3547;50.774;12.918;2023-05-29T10:12:25;3.45;;;1.60;;
7013;SDS011;3547;50.774;12.918;2023-05-29T10:14:56;2.38;;;1.70;;
7013;SDS011;3547;50.774;12.918;2023-05-29T10:17:25;2.30;;;1.67;;
7013;SDS011;3547;50.774;12.918;2023-05-29T10:19:54;2.25;;;1.80;;
7013;SDS011;3547;50.774;12.918;2023-05-29T10:22:24;1.80;;;1.52;;
7013;SDS011;3547;50.774;12.918;2023-05-29T10:24:52;1.98;;;1.60;;
7013;SDS011;3547;50.774;12.918;2023-05-29T10:27:18;2.20;;;1.75;;
7013;SDS011;3547;50.774;12.918;2023-05-29T10:29:50;1.75;;;1.52;;
7013;SDS011;3547;50.774;12.918;2023-05-29T10:35:17;2.00;;;1.60;;
7013;SDS011;3547;50.774;12.918;2023-05-29T10:37:54;2.33;;;1.55;;
7013;SDS011;3547;50.774;12.918;2023-05-29T10:40:27;2.13;;;1.60;;
7013;SDS011;3547;50.774;12.918;2023-05-29T10:42:53;2.22;;;1.85;;
7013;SDS011;3547;50.774;12.918;2023-05-29T10:48:41;2.92;;;1.75;;
7013;SDS011;3547;50.774;12.918;2023-05-29T10:50:54;4.13;;;1.92;;
7013;SDS011;3547;50.774;12.918;2023-05-29T10:53:25;2.10;;;1.70;;
7013;SDS011;3547;50.774;12.918;2023-05-29T10:55:56;4.18;;;2.10;;
7013;SDS011;3547;50.774;12.918;2023-05-29T10:58:25;2.67;;;1.65;;
7013;SDS011;3547;50.774;12.918;2023-05-29T11:00:52;2.90;;;1.98;;
7013;SDS011;3547;50.774;12.918;2023-05-29T11:03:22;3.33;;;2.03;;
7013;SDS011;3547;50.774;12.918;2023-05-29T11:11:15;2.40;;;1.38;;
7013;SDS011;3547;50.774;12.918;2023-05-29T11:13:55;2.00;;;1.80;;
7013;SDS011;3547;50.774;12.918;2023-05-29T11:18:54;1.63;;;1.52;;
7013;SDS011;3547;50.774;12.918;2023-05-29T11:21:33;5.10;;;1.70;;
7013;SDS011;3547;50.774;12.918;2023-05-29T11:24:22;4.60;;;1.50;;
7013;SDS011;3547;50.774;12.918;2023-05-29T11:26:55;1.63;;;1.50;;
7013;SDS011;3547;50.774;12.918;2023-05-29T11:29:24;4.43;;;1.70;;
7013;SDS011;3547;50.774;12.918;2023-05-29T11:31:57;1.50;;;1.40;;
7013;SDS011;3547;50.774;12.918;2023-05-29T11:34:28;2.08;;;1.80;;
7013;SDS011;3547;50.774;12.918;2023-05-29T11:36:58;1.60;;;1.50;;
7013;SDS011;3547;50.774;12.918;2023-05-29T11:39:25;2.90;;;1.38;;
7013;SDS011;3547;50.774;12.918;2023-05-29T11:41:52;2.85;;;1.40;;
7013;SDS011;3547;50.774;12.918;2023-05-29T11:44:18;2.92;;;2.13;;
7013;SDS011;3547;50.774;12.918;2023-05-29T11:46:45;2.03;;;1.38;;
7013;SDS011;3547;50.774;12.918;2023-05-29T11:49:11;5.18;;;1.48;;
7013;SDS011;3547;50.774;12.918;2023-05-29T11:51:37;1.75;;;1.50;;
7013;SDS011;3547;50.774;12.918;2023-05-29T11:54:07;2.35;;;1.83;;
7013;SDS011;3547;50.774;12.918;2023-05-29T11:56:33;2.63;;;1.80;;
7013;SDS011;3547;50.774;12.918;2023-05-29T11:58:59;3.75;;;1.70;;
7013;SDS011;3547;50.774;12.918;2023-05-29T12:01:27;3.15;;;1.40;;
7013;SDS011;3547;50.774;12.918;2023-05-29T12:03:54;1.80;;;1.65;;
7013;SDS011;3547;50.774;12.918;2023-05-29T12:06:33;1.95;;;1.65;;
7013;SDS011;3547;50.774;12.918;2023-05-29T12:09:03;1.88;;;1.50;;
7013;SDS011;3547;50.774;12.918;2023-05-29T12:11:30;1.85;;;1.50;;
7013;SDS011;3547;50.774;12.918;2023-05-29T12:14:00;2.55;;;1.77;;
7013;SDS011;3547;50.774;12.918;2023-05-29T12:16:27;3.95;;;1.80;;
7013;SDS011;3547;50.774;12.918;2023-05-29T12:18:56;5.15;;;1.73;;
7013;SDS011;3547;50.774;12.918;2023-05-29T12:21:22;4.07;;;1.98;;
7013;SDS011;3547;50.774;12.918;2023-05-29T12:23:53;2.28;;;1.48;;
7013;SDS011;3547;50.774;12.918;2023-05-29T12:26:21;3.65;;;1.50;;
7013;SDS011;3547;50.774;12.918;2023-05-29T12:28:49;2.50;;;2.15;;
7013;SDS011;3547;50.774;12.918;2023-05-29T12:31:29;2.30;;;1.88;;
7013;SDS011;3547;50.774;12.918;2023-05-29T12:34:10;2.65;;;1.77;;
7013;SDS011;3547;50.774;12.918;2023-05-29T12:36:41;3.25;;;1.67;;
7013;SDS011;3547;50.774;12.918;2023-05-29T12:39:08;1.52;;;1.42;;
7013;SDS011;3547;50.774;12.918;2023-05-29T12:41:35;1.90;;;1.67;;
7013;SDS011;3547;50.774;12.918;2023-05-29T12:44:03;2.15;;;1.73;;
7013;SDS011;3547;50.774;12.918;2023-05-29T12:46:40;2.92;;;2.00;;
7013;SDS011;3547;50.774;12.918;2023-05-29T12:49:11;2.00;;;1.70;;
7013;SDS011;3547;50.774;12.918;2023-05-29T12:51:39;2.55;;;1.60;;
7013;SDS011;3547;50.774;12.918;2023-05-29T12:54:07;1.65;;;1.50;;
7013;SDS011;3547;50.774;12.918;2023-05-29T12:56:33;2.50;;;2.05;;
7013;SDS011;3547;50.774;12.918;2023-05-29T12:58:59;2.10;;;1.65;;
7013;SDS011;3547;50.774;12.918;2023-05-29T13:01:26;3.03;;;2.05;;
7013;SDS011;3547;50.774;12.918;2023-05-29T13:03:52;1.98;;;1.67;;
7013;SDS011;3547;50.774;12.918;2023-05-29T13:06:18;6.28;;;1.63;;
7013;SDS011;3547;50.774;12.918;2023-05-29T13:08:44;1.55;;;1.45;;
7013;SDS011;3547;50.774;12.918;2023-05-29T13:11:10;4.95;;;2.03;;
7013;SDS011;3547;50.774;12.918;2023-05-29T13:13:37;2.35;;;2.00;;
7013;SDS011;3547;50.774;12.918;2023-05-29T13:16:03;1.70;;;1.60;;
7013;SDS011;3547;50.774;12.918;2023-05-29T13:18:29;2.08;;;1.70;;
7013;SDS011;3547;50.774;12.918;2023-05-29T13:20:56;4.95;;;1.75;;
7013;SDS011;3547;50.774;12.918;2023-05-29T13:23:22;2.95;;;1.52;;
7013;SDS011;3547;50.774;12.918;2023-05-29T13:25:48;2.65;;;1.88;;
7013;SDS011;3547;50.774;12.918;2023-05-29T13:28:15;2.22;;;1.98;;
7013;SDS011;3547;50.774;12.918;2023-05-29T13:30:41;2.38;;;2.17;;
7013;SDS011;3547;50.774;12.918;2023-05-29T13:33:07;3.67;;;2.13;;
7013;SDS011;3547;50.774;12.918;2023-05-29T13:35:33;1.83;;;1.73;;
7013;SDS011;3547;50.774;12.918;2023-05-29T13:37:59;1.70;;;1.60;;
7013;SDS011;3547;50.774;12.918;2023-05-29T13:40:25;1.42;;;1.33;;
7013;SDS011;3547;50.774;12.918;2023-05-29T13:42:52;3.38;;;2.10;;
7013;SDS011;3547;50.774;12.918;2023-05-29T13:45:18;2.17;;;1.80;;
7013;SDS011;3547;50.774;12.918;2023-05-29T13:47:44;2.42;;;1.90;;
7013;SDS011;3547;50.774;12.918;2023-05-29T13:50:10;3.17;;;2.13;;
7013;SDS011;3547;50.774;12.918;2023-05-29T13:52:37;2.13;;;1.92;;
7013;SDS011;3547;50.774;12.918;2023-05-29T13:55:04;1.98;;;1.73;;
7013;SDS011;3547;50.774;12.918;2023-05-29T13:57:34;3.42;;;1.95;;
7013;SDS011;3547;50.774;12.918;2023-05-29T14:00:02;2.80;;;1.88;;
7013;SDS011;3547;50.774;12.918;2023-05-29T14:02:29;1.92;;;1.80;;
7013;SDS011;3547;50.774;12.918;2023-05-29T14:04:55;3.15;;;1.88;;
7013;SDS011;3547;50.774;12.918;2023-05-29T14:07:22;2.33;;;2.05;;
7013;SDS011;3547;50.774;12.918;2023-05-29T14:09:48;2.20;;;2.00;;
7013;SDS011;3547;50.774;12.918;2023-05-29T14:12:15;1.92;;;1.70;;
7013;SDS011;3547;50.774;12.918;2023-05-29T14:14:41;2.45;;;2.00;;
7013;SDS011;3547;50.774;12.918;2023-05-29T14:17:07;1.65;;;1.55;;
7013;SDS011;3547;50.774;12.918;2023-05-29T14:19:34;3.22;;;1.83;;
7013;SDS011;3547;50.774;12.918;2023-05-29T14:22:01;4.63;;;1.67;;
7013;SDS011;3547;50.774;12.918;2023-05-29T14:24:27;3.25;;;1.85;;
7013;SDS011;3547;50.774;12.918;2023-05-29T14:26:53;3.10;;;2.00;;
7013;SDS011;3547;50.774;12.918;2023-05-29T14:29:19;4.18;;;1.85;;
7013;SDS011;3547;50.774;12.918;2023-05-29T14:31:45;2.70;;;1.90;;
7013;SDS011;3547;50.774;12.918;2023-05-29T14:34:12;2.47;;;2.28;;
7013;SDS011;3547;50.774;12.918;2023-05-29T14:36:38;2.00;;;1.75;;
7013;SDS011;3547;50.774;12.918;2023-05-29T14:39:06;2.38;;;1.70;;
7013;SDS011;3547;50.774;12.918;2023-05-29T14:41:32;3.40;;;2.35;;
7013;SDS011;3547;50.774;12.918;2023-05-29T14:44:00;1.70;;;1.60;;
7013;SDS011;3547;50.774;12.918;2023-05-29T14:46:26;3.38;;;2.05;;
7013;SDS011;3547;50.774;12.918;2023-05-29T14:48:57;2.20;;;2.00;;
7013;SDS011;3547;50.774;12.918;2023-05-29T14:51:24;2.42;;;2.05;;
7013;SDS011;3547;50.774;12.918;2023-05-29T14:53:50;2.88;;;1.60;;
7013;SDS011;3547;50.774;12.918;2023-05-29T14:56:17;2.78;;;1.88;;
7013;SDS011;3547;50.774;12.918;2023-05-29T14:58:46;2.22;;;1.80;;
7013;SDS011;3547;50.774;12.918;2023-05-29T15:01:15;3.63;;;1.85;;
7013;SDS011;3547;50.774;12.918;2023-05-29T15:03:42;2.30;;;1.77;;
7013;SDS011;3547;50.774;12.918;2023-05-29T15:06:09;3.72;;;1.92;;
7013;SDS011;3547;50.774;12.918;2023-05-29T15:08:37;3.10;;;2.33;;
7013;SDS011;3547;50.774;12.918;2023-05-29T15:11:05;2.85;;;2.22;;
7013;SDS011;3547;50.774;12.918;2023-05-29T15:13:31;2.75;;;1.98;;
7013;SDS011;3547;50.774;12.918;2023-05-29T15:15:57;2.10;;;1.90;;
7013;SDS011;3547;50.774;12.918;2023-05-29T15:18:25;2.28;;;1.88;;
7013;SDS011;3547;50.774;12.918;2023-05-29T15:20:52;4.32;;;2.33;;
7013;SDS011;3547;50.774;12.918;2023-05-29T15:23:18;2.60;;;2.00;;
7013;SDS011;3547;50.774;12.918;2023-05-29T15:25:51;2.08;;;1.88;;
7013;SDS011;3547;50.774;12.918;2023-05-29T15:28:18;2.22;;;1.90;;